createdAt,value
2018-12-08T00:00:25.697Z,96793.09
2018-12-08T00:03:07.222Z,96805.25
2018-12-08T00:05:55.211Z,96808.95
2018-12-08T00:08:28.494Z,96839.59
2018-12-08T00:11:03.903Z,96853.76
2018-12-08T00:13:45.360Z,96858.36
2018-12-08T00:16:16.639Z,96855.91
2018-12-08T00:18:49.899Z,96858.36
2018-12-08T00:21:31.712Z,96865.84
2018-12-08T00:24:13.402Z,96862.44
2018-12-08T00:26:55.975Z,96865.77
2018-12-08T00:29:28.708Z,96859.38
2018-12-08T00:32:10.507Z,96858.48
2018-12-08T00:34:41.692Z,96872.02
2018-12-08T00:37:19.325Z,96863.95
2018-12-08T00:39:58.451Z,96866.34
2018-12-08T00:42:40.112Z,96869.68
2018-12-08T00:45:22.082Z,96868.22
2018-12-08T00:47:55.452Z,96843.52
2018-12-08T00:50:37.012Z,96876.91
2018-12-08T00:53:18.939Z,96889.39
2018-12-08T00:56:00.740Z,96882.66
2018-12-08T00:58:31.788Z,96881.36
2018-12-08T01:01:07.239Z,96881.95
2018-12-08T01:03:49.637Z,96910.42
2018-12-08T01:06:21.121Z,96904.43
2018-12-08T01:08:56.424Z,96918.62
2018-12-08T01:11:27.205Z,96912.06
2018-12-08T01:14:08.923Z,96921.89
2018-12-08T01:16:50.897Z,96925.28
2018-12-08T01:19:23.989Z,96922.35
2018-12-08T01:22:06.443Z,96933.98
2018-12-08T01:24:44.271Z,96944.63
2018-12-08T01:27:18.275Z,96954.98
2018-12-08T01:30:00.155Z,96956.67
2018-12-08T01:32:42.161Z,96963.52
2018-12-08T01:35:24.039Z,96968.36
2018-12-08T01:38:05.947Z,96969.54
2018-12-08T01:40:48.125Z,96972.50
2018-12-08T01:43:29.842Z,96974.10
2018-12-08T01:46:03.019Z,96971.23
2018-12-08T01:48:36.051Z,96965.45
2018-12-08T01:51:16.956Z,96974.45
2018-12-08T01:53:58.779Z,96986.88
2018-12-08T01:59:04.271Z,96988.33
2018-12-08T02:01:45.851Z,96984.93
2018-12-08T02:04:33.039Z,96986.38
2018-12-08T02:07:05.419Z,96985.75
2018-12-08T02:09:36.707Z,96979.32
2018-12-08T02:12:18.506Z,96989.18
2018-12-08T02:14:57.643Z,96990.55
2018-12-08T02:17:30.816Z,96985.78
2018-12-08T02:20:12.324Z,96986.89
2018-12-08T02:22:53.420Z,96978.55
2018-12-08T02:25:35.407Z,96983.36
2018-12-08T02:28:08.603Z,96974.29
2018-12-08T02:30:50.860Z,96966.33
2018-12-08T02:33:32.524Z,96957.91
2018-12-08T02:36:03.860Z,96955.12
2018-12-08T02:38:37.003Z,96946.88
2018-12-08T02:41:18.910Z,96953.59
2018-12-08T02:44:00.862Z,96947.53
2018-12-08T02:46:42.901Z,96951.94
2018-12-08T02:49:18.949Z,96956.20
2018-12-08T02:51:59.528Z,96957.88
2018-12-08T02:54:41.168Z,96959.17
2018-12-08T02:57:14.485Z,96967.20
2018-12-08T02:59:56.215Z,96971.44
2018-12-08T03:02:38.117Z,96981.43
2018-12-08T03:05:22.006Z,96976.72
2018-12-08T03:07:54.652Z,96966.22
2018-12-08T03:10:36.664Z,96966.39
2018-12-08T03:13:07.972Z,96973.39
2018-12-08T03:15:49.790Z,96978.48
2018-12-08T03:18:23.043Z,96966.91
2018-12-08T03:21:04.808Z,96973.98
2018-12-08T03:23:46.823Z,96977.67
2018-12-08T03:26:28.480Z,96958.27
2018-12-08T03:29:01.755Z,96979.72
2018-12-08T03:31:43.877Z,96964.64
2018-12-08T03:34:25.802Z,96972.58
2018-12-08T03:37:07.700Z,96982.52
2018-12-08T03:39:40.965Z,96980.98
2018-12-08T03:42:22.023Z,96982.88
2018-12-08T03:44:54.399Z,96990.67
2018-12-08T03:47:29.885Z,96998.85
2018-12-08T03:50:13.406Z,96994.62
2018-12-08T03:52:55.249Z,97008.03
2018-12-08T03:55:37.275Z,96998.33
2018-12-08T04:00:54.022Z,97005.20
2018-12-08T04:03:36.001Z,96996.48
2018-12-08T04:06:17.911Z,97005.36
2018-12-08T04:08:51.001Z,97010.02
2018-12-08T04:11:33.057Z,96997.91
2018-12-08T04:14:15.982Z,97001.16
2018-12-08T04:16:57.820Z,96993.86
2018-12-08T04:19:39.808Z,96995.79
2018-12-08T04:22:21.797Z,96984.17
2018-12-08T04:25:04.029Z,96988.42
2018-12-08T04:27:45.765Z,96999.46
2018-12-08T04:30:27.715Z,96993.19
2018-12-08T04:33:09.542Z,96995.95
2018-12-08T04:35:51.420Z,96995.40
2018-12-08T04:38:24.693Z,96998.63
2018-12-08T04:40:57.904Z,96990.05
2018-12-08T04:43:41.912Z,96990.13
2018-12-08T04:46:23.751Z,96986.73
2018-12-08T04:48:57.037Z,96982.02
2018-12-08T04:51:38.799Z,96983.77
2018-12-08T04:54:16.307Z,96986.95
2018-12-08T04:56:51.565Z,96983.78
2018-12-08T04:59:24.236Z,96984.25
2018-12-08T05:04:49.475Z,96988.39
2018-12-08T05:07:22.236Z,96986.91
2018-12-08T05:10:04.303Z,96976.87
2018-12-08T05:12:35.131Z,96972.92
2018-12-08T05:15:08.117Z,96977.47
2018-12-08T05:17:49.511Z,96973.60
2018-12-08T05:20:31.493Z,96976.56
2018-12-08T05:23:12.600Z,96981.32
2018-12-08T05:25:53.781Z,96991.16
2018-12-08T05:28:27.001Z,96986.39
2018-12-08T05:31:02.580Z,96995.30
2018-12-08T05:33:44.239Z,97001.17
2018-12-08T05:36:26.123Z,97000.36
2018-12-08T05:38:59.356Z,97006.66
2018-12-08T05:41:41.630Z,97007.25
2018-12-08T05:44:12.559Z,97005.80
2018-12-08T05:46:55.519Z,96997.53
2018-12-08T05:49:26.747Z,97001.52
2018-12-08T05:52:08.755Z,97009.27
2018-12-08T05:54:50.692Z,97012.56
2018-12-08T05:57:23.873Z,97009.41
2018-12-08T06:00:05.887Z,97016.64
2018-12-08T06:02:47.620Z,97007.56
2018-12-08T06:05:25.040Z,97006.58
2018-12-08T06:07:58.731Z,97016.45
2018-12-08T06:10:34.183Z,97011.50
2018-12-08T06:13:05.083Z,97026.89
2018-12-08T06:15:36.007Z,97033.88
2018-12-08T06:18:12.593Z,97033.94
2018-12-08T06:20:53.929Z,97041.34
2018-12-08T06:23:28.663Z,97039.55
2018-12-08T06:26:13.912Z,97041.23
2018-12-08T06:28:48.604Z,97032.68
2018-12-08T06:31:30.251Z,97041.70
2018-12-08T06:34:12.176Z,97043.55
2018-12-08T06:36:54.047Z,97041.27
2018-12-08T06:39:27.217Z,97045.19
2018-12-08T06:41:58.216Z,97045.70
2018-12-08T06:44:29.731Z,97025.23
2018-12-08T06:47:11.330Z,97037.24
2018-12-08T06:49:46.976Z,97037.40
2018-12-08T06:52:32.502Z,97033.39
2018-12-08T06:55:13.564Z,97039.00
2018-12-08T06:57:49.063Z,97037.33
2018-12-08T07:00:30.564Z,97032.66
2018-12-08T07:03:05.971Z,97039.69
2018-12-08T07:05:41.008Z,97039.72
2018-12-08T07:08:15.973Z,97022.84
2018-12-08T07:10:57.251Z,97033.27
2018-12-08T07:13:32.880Z,97030.38
2018-12-08T07:16:14.295Z,97039.62
2018-12-08T07:18:47.449Z,97013.08
2018-12-08T07:21:29.328Z,97020.30
2018-12-08T07:24:11.174Z,97039.98
2018-12-08T07:26:53.088Z,97022.39
2018-12-08T07:29:28.495Z,97022.78
2018-12-08T07:32:09.966Z,97022.03
2018-12-08T07:34:53.371Z,97020.39
2018-12-08T07:37:26.032Z,97020.32
2018-12-08T07:40:01.630Z,97030.47
2018-12-08T07:42:43.120Z,97025.02
2018-12-08T07:45:25.070Z,97049.66
2018-12-08T07:47:58.539Z,97027.98
2018-12-08T07:50:40.123Z,97019.63
2018-12-08T07:53:22.114Z,97024.98
2018-12-08T07:56:03.248Z,97011.89
2018-12-08T07:58:36.580Z,97017.83
2018-12-08T08:01:18.383Z,97014.05
2018-12-08T08:14:16.899Z,97034.13
2018-12-08T08:16:59.715Z,97014.89
2018-12-08T08:19:41.588Z,97022.02
2018-12-08T08:22:22.673Z,97010.61
2018-12-08T08:25:04.982Z,97025.06
2018-12-08T08:27:37.730Z,97011.52
2018-12-08T08:30:19.603Z,97017.14
2018-12-08T08:33:01.389Z,96993.72
2018-12-08T08:35:43.270Z,97010.48
2018-12-08T08:38:16.508Z,97002.09
2018-12-08T08:40:58.295Z,97008.32
2018-12-08T08:43:40.214Z,97006.05
2018-12-08T08:46:22.067Z,97025.52
2018-12-08T08:48:55.112Z,97022.85
2018-12-08T08:51:26.280Z,97028.50
2018-12-08T08:54:07.879Z,97022.86
2018-12-08T08:56:41.150Z,97016.45
2018-12-08T08:59:14.300Z,97003.66
2018-12-08T09:01:58.171Z,97005.33
2018-12-08T09:04:31.427Z,97025.78
2018-12-08T09:07:07.196Z,97024.22
2018-12-08T09:09:48.460Z,97021.31
2018-12-08T09:12:21.686Z,97007.81
2018-12-08T09:14:52.895Z,97036.44
2018-12-08T09:17:26.131Z,97020.80
2018-12-08T09:20:09.214Z,97022.73
2018-12-08T09:22:42.319Z,97024.02
2018-12-08T09:25:24.340Z,97027.33
2018-12-08T09:27:57.604Z,97024.24
2018-12-08T09:30:29.947Z,97031.52
2018-12-08T09:33:11.723Z,97019.00
2018-12-08T09:35:53.658Z,97028.02
2018-12-08T09:38:29.371Z,97030.45
2018-12-08T09:41:10.644Z,97041.82
2018-12-08T09:43:52.516Z,97026.33
2018-12-08T09:46:34.565Z,97011.42
2018-12-08T09:49:07.876Z,97002.43
2018-12-08T09:51:49.939Z,97008.25
2018-12-08T09:54:31.762Z,96991.58
2018-12-08T09:57:13.667Z,96985.81
2018-12-08T09:59:55.491Z,96997.52
2018-12-08T10:02:26.736Z,96988.47
2018-12-08T10:04:57.811Z,97001.98
2018-12-08T10:07:32.750Z,96996.47
2018-12-08T10:10:20.726Z,96988.95
2018-12-08T10:13:02.739Z,96978.89
2018-12-08T10:15:33.823Z,96967.05
2018-12-08T10:18:08.542Z,96951.26
2018-12-08T10:20:50.019Z,96950.81
2018-12-08T10:23:31.990Z,96964.81
2018-12-08T10:26:05.187Z,96930.34
2018-12-08T10:28:38.211Z,96955.27
2018-12-08T10:31:09.576Z,96953.63
2018-12-08T10:33:51.336Z,96946.37
2018-12-08T10:36:33.439Z,96956.41
2018-12-08T10:39:08.818Z,96954.84
2018-12-08T10:44:38.499Z,96957.62
2018-12-08T10:47:20.450Z,96964.83
2018-12-08T10:50:01.626Z,96953.63
2018-12-08T10:52:42.748Z,96955.80
2018-12-08T10:55:24.443Z,96944.52
2018-12-08T10:57:57.382Z,96935.41
2018-12-08T11:00:44.473Z,96932.02
2018-12-08T11:03:20.427Z,96929.01
2018-12-08T11:06:02.211Z,96927.68
2018-12-08T11:08:34.563Z,96923.85
2018-12-08T11:11:16.351Z,96924.95
2018-12-08T11:13:58.175Z,96914.56
2018-12-08T11:16:39.946Z,96915.51
2018-12-08T11:19:12.376Z,96917.42
2018-12-08T11:21:45.556Z,96932.03
2018-12-08T11:24:27.370Z,96917.36
2018-12-08T11:27:09.107Z,96906.95
2018-12-08T11:29:51.013Z,96920.08
2018-12-08T11:32:32.951Z,96899.80
2018-12-08T11:35:14.834Z,96933.38
2018-12-08T11:37:47.871Z,96941.89
2018-12-08T11:40:20.220Z,96929.24
2018-12-08T11:43:02.039Z,96934.45
2018-12-08T11:45:44.007Z,96930.15
2018-12-08T11:48:18.147Z,96916.78
2018-12-08T11:51:00.131Z,96924.96
2018-12-08T11:53:35.704Z,96922.12
2018-12-08T11:56:17.128Z,96918.27
2018-12-08T11:58:50.147Z,96914.08
2018-12-08T12:01:21.480Z,96921.56
2018-12-08T12:04:03.169Z,96921.50
2018-12-08T12:06:45.288Z,96916.28
2018-12-08T12:09:18.641Z,96913.68
2018-12-08T12:12:00.276Z,96903.56
2018-12-08T12:14:45.511Z,96887.94
2018-12-08T12:17:16.681Z,96872.14
2018-12-08T12:19:52.120Z,96895.88
2018-12-08T12:22:33.443Z,96906.16
2018-12-08T12:25:05.695Z,96893.55
2018-12-08T12:27:38.964Z,96892.94
2018-12-08T12:30:20.712Z,96905.50
2018-12-08T12:33:02.455Z,96886.85
2018-12-08T12:35:44.508Z,96890.98
2018-12-08T12:38:17.879Z,96883.31
2018-12-08T12:40:59.404Z,96870.39
2018-12-08T12:43:41.321Z,96876.61
2018-12-08T12:46:23.159Z,96877.41
2018-12-08T12:48:55.538Z,96884.83
2018-12-08T12:51:28.803Z,96878.94
2018-12-08T12:54:11.719Z,96890.80
2018-12-08T12:56:53.376Z,96875.11
2018-12-08T12:59:26.599Z,96879.97
2018-12-08T13:02:08.552Z,96884.27
2018-12-08T13:04:54.656Z,96899.86
2018-12-08T13:07:27.664Z,96894.66
2018-12-08T13:10:09.679Z,96891.64
2018-12-08T13:12:51.625Z,96906.25
2018-12-08T13:15:33.639Z,96906.03
2018-12-08T13:18:06.656Z,96899.69
2018-12-08T13:20:37.822Z,96894.16
2018-12-08T13:23:18.934Z,96890.85
2018-12-08T13:26:00.787Z,96890.70
2018-12-08T13:28:33.935Z,96864.92
2018-12-08T13:31:15.923Z,96867.26
2018-12-08T13:33:47.054Z,96867.52
2018-12-08T13:36:28.849Z,96864.03
2018-12-08T13:39:10.783Z,96866.87
2018-12-08T13:41:41.975Z,96854.41
2018-12-08T13:44:39.131Z,96856.88
2018-12-08T13:47:11.980Z,96865.14
2018-12-08T13:49:55.368Z,96865.55
2018-12-08T13:52:36.580Z,96865.52
2018-12-08T13:55:12.218Z,96846.85
2018-12-08T13:57:46.712Z,96854.42
2018-12-08T14:00:22.158Z,96851.56
2018-12-08T14:03:03.764Z,96845.73
2018-12-08T14:06:03.991Z,96861.70
2018-12-08T14:08:36.927Z,96863.30
2018-12-08T14:11:10.031Z,96850.75
2018-12-08T14:13:51.247Z,96874.44
2018-12-08T14:18:56.899Z,96887.49
2018-12-08T14:24:38.154Z,96884.67
2018-12-08T14:27:21.092Z,96877.76
2018-12-08T14:30:03.092Z,96871.66
2018-12-08T14:32:39.774Z,96865.16
2018-12-08T14:35:21.006Z,96866.66
2018-12-08T14:37:54.110Z,96861.31
2018-12-08T14:40:35.993Z,96871.84
2018-12-08T14:43:19.792Z,96876.59
2018-12-08T14:46:01.020Z,96883.34
2018-12-08T14:48:34.153Z,96876.30
2018-12-08T14:51:08.883Z,96877.00
2018-12-08T14:53:46.697Z,96879.83
2018-12-08T14:56:26.861Z,96887.28
2018-12-08T14:59:00.009Z,96893.81
2018-12-08T15:01:41.739Z,96901.63
2018-12-08T15:04:22.788Z,96894.67
2018-12-08T15:06:54.060Z,96899.19
2018-12-08T15:09:27.363Z,96901.98
2018-12-08T15:12:09.036Z,96907.91
2018-12-08T15:14:50.127Z,96897.58
2018-12-08T15:17:23.275Z,96893.00
2018-12-08T15:20:05.831Z,96885.68
2018-12-08T15:22:38.777Z,96878.69
2018-12-08T15:25:15.263Z,96876.48
2018-12-08T15:27:47.699Z,96887.52
2018-12-08T15:30:29.448Z,96875.20
2018-12-08T15:33:11.403Z,96868.52
2018-12-08T15:35:53.108Z,96875.06
2018-12-08T15:38:25.455Z,96867.48
2018-12-08T15:41:07.390Z,96869.59
2018-12-08T15:43:49.247Z,96882.44
2018-12-08T15:46:31.025Z,96869.06
2018-12-08T15:49:04.296Z,96873.50
2018-12-08T15:51:46.264Z,96874.00
2018-12-08T15:54:28.283Z,96884.02
2018-12-08T15:57:10.272Z,96874.98
2018-12-08T15:59:51.384Z,96865.96
2018-12-08T16:02:33.203Z,96859.13
2018-12-08T16:05:15.045Z,96862.05
2018-12-08T16:07:51.446Z,96843.36
2018-12-08T16:10:33.144Z,96865.51
2018-12-08T16:13:14.249Z,96852.05
2018-12-08T16:18:48.943Z,96851.06
2018-12-08T16:21:30.016Z,96856.57
2018-12-08T16:24:05.534Z,96844.01
2018-12-08T16:26:46.960Z,96843.34
2018-12-08T16:29:19.387Z,96845.14
2018-12-08T16:32:01.472Z,96848.49
2018-12-08T16:34:35.859Z,96854.83
2018-12-08T16:37:08.343Z,96845.55
2018-12-08T16:39:40.433Z,96849.53
2018-12-08T16:42:19.762Z,96839.83
2018-12-08T16:45:02.003Z,96846.73
2018-12-08T16:47:34.484Z,96837.11
2018-12-08T16:50:07.991Z,96849.94
2018-12-08T16:52:43.550Z,96838.23
2018-12-08T16:55:37.219Z,96841.61
2018-12-08T16:58:10.152Z,96840.78
2018-12-08T17:03:40.925Z,96819.30
2018-12-08T17:06:12.203Z,96824.98
2018-12-08T17:08:45.383Z,96818.55
2018-12-08T17:11:16.645Z,96820.61
2018-12-08T17:14:08.813Z,96815.99
2018-12-08T17:16:50.304Z,96823.19
2018-12-08T17:19:25.818Z,96818.70
2018-12-08T17:22:07.210Z,96817.25
2018-12-08T17:24:42.881Z,96809.58
2018-12-08T17:27:17.981Z,96820.56
2018-12-08T17:29:59.172Z,96816.23
2018-12-08T17:32:30.772Z,96812.94
2018-12-08T17:35:01.863Z,96818.30
2018-12-08T17:37:34.945Z,96819.33
2018-12-08T17:40:16.902Z,96810.64
2018-12-08T17:42:58.591Z,96813.39
2018-12-08T17:45:40.584Z,96804.61
2018-12-08T17:48:18.125Z,96810.75
2018-12-08T17:51:00.667Z,96806.41
2018-12-08T17:53:42.252Z,96813.87
2018-12-08T17:56:14.600Z,96811.72
2018-12-08T17:58:47.591Z,96804.65
2018-12-08T18:01:33.521Z,96798.40
2018-12-08T18:04:15.555Z,96808.14
2018-12-08T18:06:57.560Z,96797.31
2018-12-08T18:09:30.847Z,96803.08
2018-12-08T18:12:12.940Z,96817.36
2018-12-08T18:14:59.740Z,96788.17
2018-12-08T18:17:41.856Z,96784.57
2018-12-08T18:20:23.453Z,96778.00
2018-12-08T18:23:05.424Z,96773.48
2018-12-08T18:25:47.259Z,96770.94
2018-12-08T18:28:22.824Z,96765.18
2018-12-08T18:31:04.103Z,96772.45
2018-12-08T18:33:46.074Z,96773.41
2018-12-08T18:36:28.014Z,96783.22
2018-12-08T18:39:01.167Z,96784.13
2018-12-08T18:41:43.208Z,96779.88
2018-12-08T18:44:25.210Z,96763.56
2018-12-08T18:47:07.116Z,96769.86
2018-12-08T18:49:49.113Z,96762.89
2018-12-08T18:52:30.353Z,96765.70
2018-12-08T18:55:12.306Z,96761.28
2018-12-08T18:57:43.269Z,96758.62
2018-12-08T19:00:25.271Z,96759.95
2018-12-08T19:03:07.137Z,96761.87
2018-12-08T19:05:49.037Z,96759.18
2018-12-08T19:08:22.229Z,96757.97
2018-12-08T19:10:59.165Z,96753.36
2018-12-08T19:13:40.979Z,96739.53
2018-12-08T19:16:22.902Z,96740.13
2018-12-08T19:18:56.087Z,96727.52
2018-12-08T19:21:38.052Z,96721.50
2018-12-08T19:24:19.966Z,96725.16
2018-12-08T19:27:01.880Z,96726.55
2018-12-08T19:29:43.666Z,96719.34
2018-12-08T19:32:24.843Z,96709.88
2018-12-08T19:34:57.168Z,96706.83
2018-12-08T19:37:29.314Z,96699.59
2018-12-08T19:40:11.325Z,96681.45
2018-12-08T19:42:53.203Z,96681.64
2018-12-08T19:45:35.132Z,96681.52
2018-12-08T19:48:08.277Z,96685.09
2018-12-08T19:50:50.161Z,96672.25
2018-12-08T19:53:32.010Z,96671.53
2018-12-08T19:56:07.515Z,96666.14
2018-12-08T19:58:40.404Z,96668.59
2018-12-08T20:01:24.367Z,96653.72
2018-12-08T20:04:06.362Z,96651.84
2018-12-08T20:06:45.155Z,96642.55
2018-12-08T20:09:17.527Z,96634.08
2018-12-08T20:11:59.376Z,96633.14
2018-12-08T20:14:40.516Z,96627.89
2018-12-08T20:17:22.250Z,96622.38
2018-12-08T20:20:04.440Z,96607.33
2018-12-08T20:22:37.352Z,96611.00
2018-12-08T20:25:19.355Z,96605.98
2018-12-08T20:27:52.497Z,96605.48
2018-12-08T20:30:34.474Z,96606.56
2018-12-08T20:33:05.644Z,96590.14
2018-12-08T20:35:47.546Z,96584.85
2018-12-08T20:38:20.480Z,96581.20
2018-12-08T20:41:02.472Z,96570.19
2018-12-08T20:43:44.263Z,96570.83
2018-12-08T20:46:15.560Z,96558.51
2018-12-08T20:48:48.621Z,96549.96
2018-12-08T20:51:21.802Z,96561.56
2018-12-08T20:54:03.463Z,96552.12
2018-12-08T20:56:45.375Z,96549.64
2018-12-08T20:59:20.127Z,96548.73
2018-12-08T21:02:01.527Z,96544.17
2018-12-08T21:04:43.389Z,96531.36
2018-12-08T21:07:25.199Z,96533.87
2018-12-08T21:10:07.441Z,96510.56
2018-12-08T21:12:49.282Z,96502.30
2018-12-08T21:15:31.252Z,96499.89
2018-12-08T21:18:04.434Z,96486.27
2018-12-08T21:20:46.352Z,96480.94
2018-12-08T21:23:28.172Z,96466.22
2018-12-08T21:26:10.093Z,96450.78
2018-12-08T21:28:42.551Z,96446.95
2018-12-08T21:31:24.469Z,96437.98
2018-12-08T21:34:06.473Z,96426.40
2018-12-08T21:36:41.952Z,96428.06
2018-12-08T21:39:17.311Z,96411.47
2018-12-08T21:41:58.849Z,96410.81
2018-12-08T21:44:40.734Z,96405.73
2018-12-08T21:47:22.631Z,96400.17
2018-12-08T21:50:04.555Z,96396.02
2018-12-08T21:52:46.530Z,96389.70
2018-12-08T21:55:21.456Z,96393.09
2018-12-08T21:57:54.119Z,96385.86
2018-12-08T22:00:27.364Z,96376.23
2018-12-08T22:03:09.276Z,96383.06
2018-12-08T22:05:42.459Z,96366.57
2018-12-08T22:08:13.512Z,96371.61
2018-12-08T22:10:54.007Z,96378.58
2018-12-08T22:13:35.382Z,96318.48
2018-12-08T22:16:10.154Z,96373.95
2018-12-08T22:18:42.707Z,96364.55
2018-12-08T22:21:15.066Z,96365.59
2018-12-08T22:23:56.914Z,96369.72
2018-12-08T22:26:38.817Z,96346.34
2018-12-08T22:29:12.043Z,96354.45
2018-12-08T22:31:53.214Z,96337.34
2018-12-08T22:34:35.208Z,96355.00
2018-12-08T22:37:17.111Z,96336.47
2018-12-08T22:39:50.224Z,96342.66
2018-12-08T22:42:31.308Z,96326.66
2018-12-08T22:45:13.256Z,96320.77
2018-12-08T22:47:46.451Z,96300.38
2018-12-08T22:50:28.332Z,96302.32
2018-12-08T22:53:09.432Z,96301.58
2018-12-08T22:55:53.935Z,96297.34
2018-12-08T22:58:26.768Z,96304.06
2018-12-08T23:01:08.520Z,96264.77
2018-12-08T23:03:41.833Z,96281.94
2018-12-08T23:06:23.767Z,96274.55
2018-12-08T23:08:56.192Z,96271.75
2018-12-08T23:11:27.345Z,96263.02
2018-12-08T23:14:09.331Z,96236.63
2018-12-08T23:16:45.180Z,96245.64
2018-12-08T23:19:17.728Z,96234.03
2018-12-08T23:21:48.662Z,96261.19
2018-12-08T23:26:52.435Z,96217.67
2018-12-08T23:29:26.027Z,96195.27
2018-12-08T23:32:09.486Z,96189.98
2018-12-08T23:34:42.819Z,96160.53
2018-12-08T23:37:24.200Z,96162.22
2018-12-08T23:40:05.618Z,96140.29
2018-12-08T23:42:36.979Z,96103.65
2018-12-08T23:45:18.528Z,96169.52
2018-12-08T23:47:51.815Z,96159.95
2018-12-08T23:50:33.928Z,96120.26
2018-12-08T23:53:15.813Z,96137.36
2018-12-08T23:55:57.978Z,96113.18
2018-12-08T23:58:34.487Z,96050.00
